Time;durP1;ratioP1;P1;durP2;ratioP2;P2;SDS_P1;SDS_P2;PMS_P1;PMS_P2;Temp;Humidity;BMP_temperature;BMP_pressure;BME280_temperature;BME280_humidity;BME280_pressure;Samples;Min_cycle;Max_cycle;Signal;HPM_P1;HPM_P2
2024/04/18 05:04:14;;;;;;;;;;;;;;;7.43;100.00;98750.37;1859158;76;20128;-73
2024/04/18 05:06:42;;;;;;;;;;;;;;;7.42;100.00;98750.48;1822761;77;20578;-70
2024/04/18 05:09:11;;;;;;;;;;;;;;;7.45;100.00;98748.98;1823030;77;20151;-72
2024/04/18 05:11:38;;;;;;;;;;;;;;;7.49;100.00;98742.22;1798028;77;20898;-75
2024/04/18 05:14:06;;;;;;;;;;;;;;;7.56;100.00;98747.84;1818036;78;20136;-68
2024/04/18 05:16:51;;;;;;;;;;;;;;;7.66;100.00;98751.02;1814758;77;20428;-72
2024/04/18 05:19:19;;;;;;;;;;;;;;;7.73;100.00;98738.50;1816278;77;20609;-69
2024/04/18 05:21:45;;;;;;;;;;;;;;;7.82;100.00;98736.61;1811862;77;20236;-68
2024/04/18 05:24:31;;;;;;;;;;;;;;;7.94;100.00;98731.92;1808329;77;20101;-66
2024/04/18 05:26:57;;;;;;;;;;;;;;;8.08;100.00;98743.12;1828398;78;20104;-69
2024/04/18 05:32:08;;;;;;;;;;;;;;;8.28;100.00;98736.14;1812017;77;20137;-69
2024/04/18 05:34:34;;;;;;;;;;;;;;;8.36;100.00;98736.50;1819432;77;20180;-70
2024/04/18 05:37:00;;;;;;;;;;;;;;;8.45;100.00;98738.91;1804763;78;20149;-68
2024/04/18 05:39:26;;;;;;;;;;;;;;;8.54;100.00;98743.48;1804065;78;20404;-69
2024/04/18 05:41:54;;;;;;;;;;;;;;;8.58;100.00;98755.31;1818745;78;20110;-69
2024/04/18 05:44:39;;;;;;;;;;;;;;;8.60;100.00;98750.84;1809883;78;20110;-69
2024/04/18 05:47:05;;;;;;;;;;;;;;;8.66;100.00;98743.48;1823910;78;20105;-68
2024/04/18 05:49:32;;;;;;;;;;;;;;;8.72;100.00;98737.50;1831059;77;20122;-69
2024/04/18 05:51:58;;;;;;;;;;;;;;;8.76;100.00;98742.84;1819808;77;20102;-69
2024/04/18 05:54:33;;;;;;;;;;;;;;;8.75;100.00;98728.21;1818069;78;20107;-70
2024/04/18 05:57:05;;;;;;;;;;;;;;;8.77;100.00;98723.28;1803152;78;20092;-69
2024/04/18 05:59:51;;;;;;;;;;;;;;;8.76;100.00;98716.42;1813904;77;20137;-71
2024/04/18 06:02:17;;;;;;;;;;;;;;;8.74;100.00;98709.22;1809404;77;20112;-71
2024/04/18 06:04:44;;;;;;;;;;;;;;;8.75;100.00;98716.06;1817086;79;20137;-74
2024/04/18 06:07:29;;;;;;;;;;;;;;;8.77;100.00;98703.81;1816813;79;20124;-69
2024/04/18 06:09:57;;;;;;;;;;;;;;;8.79;100.00;98702.41;1824820;78;20364;-68
2024/04/18 06:12:23;;;;;;;;;;;;;;;8.81;100.00;98706.52;1810574;79;20138;-70
2024/04/18 06:14:49;;;;;;;;;;;;;;;8.82;100.00;98700.40;1811418;79;20114;-69
2024/04/18 06:17:18;;;;;;;;;;;;;;;8.87;100.00;98700.08;1801477;79;20097;-70
2024/04/18 06:19:53;;;;;;;;;;;;;;;8.96;100.00;98692.95;1804872;78;20150;-71
2024/04/18 06:22:29;;;;;;;;;;;;;;;9.05;100.00;98688.41;1807734;79;20087;-70
2024/04/18 06:25:16;;;;;;;;;;;;;;;9.14;100.00;98687.75;1811276;79;20134;-70
2024/04/18 06:27:43;;;;;;;;;;;;;;;9.18;100.00;98685.30;1804789;79;20094;-69
2024/04/18 06:30:10;;;;;;;;;;;;;;;9.20;100.00;98678.20;1805364;78;20161;-71
2024/04/18 06:32:37;;;;;;;;;;;;;;;9.24;100.00;98686.12;1805427;79;20143;-70
2024/04/18 06:35:04;;;;;;;;;;;;;;;9.32;100.00;98694.20;1811050;79;20110;-71
2024/04/18 06:37:31;;;;;;;;;;;;;;;9.34;100.00;98688.42;1808433;79;20169;-70
2024/04/18 06:40:00;;;;;;;;;;;;;;;9.36;100.00;98686.55;1804253;79;20102;-69
2024/04/18 06:42:26;;;;;;;;;;;;;;;9.37;100.00;98692.57;1786316;79;20104;-69
2024/04/18 06:44:53;;;;;;;;;;;;;;;9.39;100.00;98701.09;1828497;77;20125;-68
2024/04/18 06:47:23;;;;;;;;;;;;;;;9.42;100.00;98701.34;1808810;79;20164;-71
2024/04/18 06:50:07;;;;;;;;;;;;;;;9.48;100.00;98706.09;1807916;79;20920;-69
2024/04/18 06:52:36;;;;;;;;;;;;;;;9.53;100.00;98716.98;1801465;79;20118;-69
2024/04/18 06:55:04;;;;;;;;;;;;;;;9.56;100.00;98721.49;1800878;79;20101;-70
2024/04/18 06:57:43;;;;;;;;;;;;;;;9.59;100.00;98718.67;1798627;79;20141;-71
2024/04/18 07:00:27;;;;;;;;;;;;;;;9.60;100.00;98722.89;1801504;78;20204;-68
2024/04/18 07:02:53;;;;;;;;;;;;;;;9.61;100.00;98728.92;1813726;78;20123;-69
2024/04/18 07:05:39;;;;;;;;;;;;;;;9.60;100.00;98729.86;1780197;80;20098;-69
2024/04/18 07:08:20;;;;;;;;;;;;;;;9.60;100.00;98725.97;1750763;81;20406;-70
2024/04/18 07:10:47;;;;;;;;;;;;;;;9.62;100.00;98735.78;1757320;81;20131;-70
2024/04/18 07:13:29;;;;;;;;;;;;;;;9.59;100.00;98731.66;1768317;80;20165;-69
2024/04/18 07:15:59;;;;;;;;;;;;;;;9.58;100.00;98727.87;1762403;80;20392;-69
2024/04/18 07:18:43;;;;;;;;;;;;;;;9.58;100.00;98725.28;1766714;80;20416;-70
2024/04/18 07:21:10;;;;;;;;;;;;;;;9.54;100.00;98723.38;1765289;80;20154;-70
2024/04/18 07:23:37;;;;;;;;;;;;;;;9.54;100.00;98724.67;1770253;80;20101;-68
2024/04/18 07:26:05;;;;;;;;;;;;;;;9.56;100.00;98735.78;1766218;80;20111;-69
2024/04/18 07:28:33;;;;;;;;;;;;;;;9.52;100.00;98733.05;1763824;80;20143;-68
2024/04/18 07:31:08;;;;;;;;;;;;;;;9.48;100.00;98724.28;1757062;80;20137;-68
2024/04/18 07:33:35;;;;;;;;;;;;;;;9.47;100.00;98721.32;1764359;80;20559;-71
2024/04/18 07:36:04;;;;;;;;;;;;;;;9.43;100.00;98713.39;1756891;80;20432;-71
2024/04/18 07:38:30;;;;;;;;;;;;;;;9.41;100.00;98709.60;1768633;80;20139;-78
2024/04/18 07:40:57;;;;;;;;;;;;;;;9.40;100.00;98702.74;1764605;80;20413;-70
2024/04/18 07:43:25;;;;;;;;;;;;;;;9.42;100.00;98713.86;1764172;80;20132;-72
2024/04/18 07:46:28;;;;;;;;;;;;;;;9.43;100.00;98725.08;1762211;80;20163;-72
2024/04/18 07:48:57;;;;;;;;;;;;;;;9.41;100.00;98728.25;1745651;81;20150;-70
2024/04/18 07:51:21;;;;;;;;;;;;;;;9.39;100.00;98727.53;1738806;82;20165;-72
2024/04/18 07:53:56;;;;;;;;;;;;;;;9.38;100.00;98725.88;1734541;81;20154;-71
2024/04/18 07:56:24;;;;;;;;;;;;;;;9.40;100.00;98711.01;1752993;81;20164;-70
2024/04/18 07:58:50;;;;;;;;;;;;;;;9.42;100.00;98709.96;1745776;81;20152;-72
2024/04/18 08:01:16;;;;;;;;;;;;;;;9.42;100.00;98718.23;1753129;81;20127;-70
2024/04/18 08:03:43;;;;;;;;;;;;;;;9.43;100.00;98738.07;1745110;81;20194;-72
2024/04/18 08:06:11;;;;;;;;;;;;;;;9.40;100.00;98733.92;1749562;80;20418;-69
2024/04/18 08:08:40;;;;;;;;;;;;;;;9.42;100.00;98742.91;1740659;81;20159;-69
2024/04/18 08:11:09;;;;;;;;;;;;;;;9.44;100.00;98739.26;1748346;80;20172;-67
2024/04/18 08:13:36;;;;;;;;;;;;;;;9.45;100.00;98738.31;1750054;80;20093;-70
2024/04/18 08:16:03;;;;;;;;;;;;;;;9.47;100.00;98737.74;1746415;80;20987;-70
2024/04/18 08:18:33;;;;;;;;;;;;;;;9.46;100.00;98738.68;1743289;80;20121;-70
2024/04/18 08:21:00;;;;;;;;;;;;;;;9.45;100.00;98718.83;1751396;80;20111;-71
2024/04/18 08:23:26;;;;;;;;;;;;;;;9.47;100.00;98713.53;1738974;80;20607;-75
2024/04/18 08:25:53;;;;;;;;;;;;;;;9.48;100.00;98710.82;1738081;80;20386;-78
2024/04/18 08:28:22;;;;;;;;;;;;;;;9.52;100.00;98717.92;1733675;81;20139;-77
2024/04/18 08:30:50;;;;;;;;;;;;;;;9.56;100.00;98712.86;1736174;80;20454;-72
2024/04/18 08:33:17;;;;;;;;;;;;;;;9.62;100.00;98714.52;1744468;80;20162;-71
2024/04/18 08:35:44;;;;;;;;;;;;;;;9.65;100.00;98708.27;1743215;80;20106;-72
2024/04/18 08:38:12;;;;;;;;;;;;;;;9.65;100.00;98711.70;1750268;80;20426;-71
2024/04/18 08:40:38;;;;;;;;;;;;;;;9.66;100.00;98706.86;1746673;81;20448;-72
2024/04/18 08:43:04;;;;;;;;;;;;;;;9.66;100.00;98708.62;1748382;81;20198;-71
2024/04/18 08:45:35;;;;;;;;;;;;;;;9.70;100.00;98699.66;1774653;79;20189;-72
2024/04/18 08:48:02;;;;;;;;;;;;;;;9.76;100.00;98697.92;1766003;80;20152;-73
2024/04/18 08:50:41;;;;;;;;;;;;;;;9.77;100.00;98695.67;1769563;81;20108;-72
2024/04/18 08:53:09;;;;;;;;;;;;;;;9.79;100.00;98691.66;1737458;80;20397;-72
2024/04/18 08:55:36;;;;;;;;;;;;;;;9.80;100.00;98693.32;1744847;81;20109;-72
2024/04/18 08:58:05;;;;;;;;;;;;;;;9.79;100.00;98696.86;1764035;80;20093;-68
2024/04/18 09:00:33;;;;;;;;;;;;;;;9.75;100.00;98685.03;1763448;81;20168;-67
2024/04/18 09:02:59;;;;;;;;;;;;;;;9.75;100.00;98678.53;1752876;80;20315;-72
2024/04/18 09:05:25;;;;;;;;;;;;;;;9.77;100.00;98674.87;1759315;80;20158;-67
2024/04/18 09:07:52;;;;;;;;;;;;;;;9.77;100.00;98672.75;1769525;80;20105;-71
2024/04/18 09:10:22;;;;;;;;;;;;;;;9.74;100.00;98668.61;1762043;80;20153;-74
2024/04/18 09:12:51;;;;;;;;;;;;;;;9.72;100.00;98670.49;1709978;80;20129;-73
2024/04/18 09:15:17;;;;;;;;;;;;;;;9.76;100.00;98678.89;1767696;80;20124;-74
2024/04/18 09:17:44;;;;;;;;;;;;;;;9.79;100.00;98674.77;1768502;80;20155;-72
2024/04/18 09:20:10;;;;;;;;;;;;;;;9.77;100.00;98674.87;1765319;80;20481;-73
2024/04/18 09:22:36;;;;;;;;;;;;;;;9.76;100.00;98668.50;1757235;80;20110;-72
2024/04/18 09:25:08;;;;;;;;;;;;;;;9.74;100.00;98671.20;1768569;80;20130;-70
2024/04/18 09:27:36;;;;;;;;;;;;;;;9.69;100.00;98673.31;1759207;80;20096;-75
2024/04/18 09:30:12;;;;;;;;;;;;;;;9.69;100.00;98673.31;1766691;80;20181;-73
2024/04/18 09:32:41;;;;;;;;;;;;;;;9.65;100.00;98675.78;1767252;80;20329;-72
2024/04/18 09:35:12;;;;;;;;;;;;;;;9.55;100.00;98672.23;1766718;80;20166;-72
2024/04/18 09:37:41;;;;;;;;;;;;;;;9.48;100.00;98665.34;1753127;80;20134;-71
2024/04/18 09:40:10;;;;;;;;;;;;;;;9.46;100.00;98662.50;1766000;80;20298;-71
2024/04/18 09:42:45;;;;;;;;;;;;;;;9.41;100.00;98652.91;1761739;80;20107;-71
2024/04/18 09:45:14;;;;;;;;;;;;;;;9.40;100.00;98664.25;1780694;80;20394;-72
2024/04/18 09:47:43;;;;;;;;;;;;;;;9.37;100.00;98660.10;1773464;80;20128;-71
2024/04/18 09:50:12;;;;;;;;;;;;;;;9.34;100.00;98664.22;1768269;80;20128;-73
2024/04/18 09:52:39;;;;;;;;;;;;;;;9.33;100.00;98656.89;1765076;80;20201;-73
2024/04/18 09:55:12;;;;;;;;;;;;;;;9.32;100.00;98660.44;1768887;80;20132;-69
2024/04/18 09:57:36;;;;;;;;;;;;;;;9.28;100.00;98654.27;1764467;80;20106;-68
2024/04/18 10:00:04;;;;;;;;;;;;;;;9.25;100.00;98657.92;1737283;81;20100;-67
2024/04/18 10:02:35;;;;;;;;;;;;;;;9.21;100.00;98658.25;1764326;80;20130;-70
2024/04/18 10:05:02;;;;;;;;;;;;;;;9.17;100.00;98662.03;1773021;80;20130;-69
2024/04/18 10:07:29;;;;;;;;;;;;;;;9.16;100.00;98662.50;1747985;80;20144;-68
2024/04/18 10:09:55;;;;;;;;;;;;;;;9.17;100.00;98652.95;1758896;81;20482;-72
2024/04/18 10:12:31;;;;;;;;;;;;;;;9.19;100.00;98649.30;1755909;80;20153;-71
2024/04/18 10:14:57;;;;;;;;;;;;;;;9.22;100.00;98644.32;1762551;80;20105;-72
2024/04/18 10:17:24;;;;;;;;;;;;;;;9.19;100.00;98638.91;1748451;81;20157;-71
2024/04/18 10:19:51;;;;;;;;;;;;;;;9.17;100.00;98631.70;1766988;81;20169;-74
2024/04/18 10:22:17;;;;;;;;;;;;;;;9.15;100.00;98619.30;1748979;80;20130;-77
2024/04/18 10:24:45;;;;;;;;;;;;;;;9.17;100.00;98616.12;1772575;81;20101;-70
2024/04/18 10:27:11;;;;;;;;;;;;;;;9.20;100.00;98615.03;1736867;82;20104;-72
2024/04/18 10:29:38;;;;;;;;;;;;;;;9.18;100.00;98608.69;1751442;82;20100;-71
2024/04/18 10:32:10;;;;;;;;;;;;;;;9.16;100.00;98619.66;1750791;81;20120;-70
2024/04/18 10:34:36;;;;;;;;;;;;;;;9.18;100.00;98622.14;1739682;81;20096;-71
2024/04/18 10:37:07;;;;;;;;;;;;;;;9.20;100.00;98614.56;1735646;81;20099;-70
2024/04/18 10:39:44;;;;;;;;;;;;;;;9.18;100.00;98613.05;1744100;82;20108;-72
2024/04/18 10:42:12;;;;;;;;;;;;;;;9.14;100.00;98607.25;1737809;81;20395;-71
2024/04/18 10:44:39;;;;;;;;;;;;;;;9.14;100.00;98611.14;1751692;81;20103;-68
2024/04/18 10:47:06;;;;;;;;;;;;;;;9.13;100.00;98604.30;1746106;82;20114;-70
2024/04/18 10:49:38;;;;;;;;;;;;;;;9.11;100.00;98606.64;1773131;80;20184;-71
2024/04/18 10:52:08;;;;;;;;;;;;;;;9.07;100.00;98611.23;1737055;82;20148;-70
2024/04/18 10:54:32;;;;;;;;;;;;;;;9.03;100.00;98611.91;1728215;81;20099;-71
2024/04/18 10:56:58;;;;;;;;;;;;;;;8.98;100.00;98614.48;1766539;81;20465;-71
2024/04/18 10:59:27;;;;;;;;;;;;;;;8.96;100.00;98609.40;1755075;81;20105;-72
2024/04/18 11:02:04;;;;;;;;;;;;;;;8.98;100.00;98605.40;1767070;81;20111;-71
2024/04/18 11:04:31;;;;;;;;;;;;;;;8.97;100.00;98605.04;1747779;81;20120;-71
2024/04/18 11:06:57;;;;;;;;;;;;;;;8.95;100.00;98596.06;1754098;81;20381;-68
2024/04/18 11:09:25;;;;;;;;;;;;;;;8.96;100.00;98590.40;1750320;81;20131;-70
2024/04/18 11:11:51;;;;;;;;;;;;;;;8.96;100.00;98576.13;1758647;81;20130;-71
2024/04/18 11:14:17;;;;;;;;;;;;;;;9.00;100.00;98591.37;1754227;81;20137;-69
2024/04/18 11:16:44;;;;;;;;;;;;;;;9.02;100.00;98578.27;1767537;81;20362;-69
2024/04/18 11:19:10;;;;;;;;;;;;;;;9.06;100.00;98580.18;1737647;82;20107;-68
2024/04/18 11:21:37;;;;;;;;;;;;;;;9.08;100.00;98581.73;1740962;81;20129;-68
2024/04/18 11:24:03;;;;;;;;;;;;;;;9.08;100.00;98565.32;1739884;81;20104;-70
2024/04/18 11:26:30;;;;;;;;;;;;;;;9.07;100.00;98571.45;1738667;81;20167;-70
2024/04/18 11:28:57;;;;;;;;;;;;;;;8.99;100.00;98561.63;1738389;81;20544;-71
2024/04/18 11:31:24;;;;;;;;;;;;;;;8.95;100.00;98547.20;1744947;81;20135;-70
2024/04/18 11:33:52;;;;;;;;;;;;;;;8.93;100.00;98539.53;1734704;81;20171;-72
2024/04/18 11:36:20;;;;;;;;;;;;;;;8.88;100.00;98528.66;1737327;81;20419;-72
2024/04/18 11:38:47;;;;;;;;;;;;;;;8.84;100.00;98528.98;1737402;81;20112;-71
2024/04/18 11:41:13;;;;;;;;;;;;;;;8.81;100.00;98527.91;1749236;82;20099;-73
2024/04/18 11:43:40;;;;;;;;;;;;;;;8.81;100.00;98530.50;1735438;81;20202;-69
2024/04/18 11:46:06;;;;;;;;;;;;;;;8.80;100.00;98531.44;1751562;81;20103;-72
2024/04/18 11:48:37;;;;;;;;;;;;;;;8.79;100.00;98544.09;1763784;81;20419;-73
2024/04/18 11:51:04;;;;;;;;;;;;;;;8.76;100.00;98533.46;1750088;81;20381;-70
2024/04/18 11:53:32;;;;;;;;;;;;;;;8.75;100.00;98538.76;1749805;81;20138;-71
2024/04/18 11:55:59;;;;;;;;;;;;;;;8.69;100.00;98529.18;1750215;81;20099;-69
2024/04/18 11:58:28;;;;;;;;;;;;;;;8.66;100.00;98528.57;1750028;81;20099;-70
2024/04/18 12:00:55;;;;;;;;;;;;;;;8.67;100.00;98524.56;1763440;81;20159;-69
2024/04/18 12:03:27;;;;;;;;;;;;;;;8.69;100.00;98513.61;1749541;82;20195;-68
2024/04/18 12:05:54;;;;;;;;;;;;;;;8.69;100.00;98511.02;1752929;80;20104;-69
2024/04/18 12:08:20;;;;;;;;;;;;;;;8.68;100.00;98487.30;1760278;81;20410;-69
2024/04/18 12:10:49;;;;;;;;;;;;;;;8.75;100.00;98466.09;1744688;81;20112;-67
2024/04/18 12:13:19;;;;;;;;;;;;;;;8.83;100.00;98480.14;1744247;81;20119;-68
2024/04/18 12:15:54;;;;;;;;;;;;;;;8.88;100.00;98469.42;1773699;79;20417;-71
2024/04/18 12:18:22;;;;;;;;;;;;;;;8.93;100.00;98467.31;1739001;82;20160;-70
2024/04/18 12:20:50;;;;;;;;;;;;;;;8.99;100.00;98461.67;1745131;81;20152;-68
2024/04/18 12:23:20;;;;;;;;;;;;;;;9.00;100.00;98460.73;1743408;81;20147;-69
2024/04/18 12:25:51;;;;;;;;;;;;;;;9.00;100.00;98451.17;1761967;81;20151;-71
2024/04/18 12:28:20;;;;;;;;;;;;;;;9.02;100.00;98442.80;1725924;81;20122;-71
2024/04/18 12:30:47;;;;;;;;;;;;;;;9.02;100.00;98428.98;1795876;79;20090;-71
2024/04/18 12:33:19;;;;;;;;;;;;;;;9.00;100.00;98423.08;1750423;80;20166;-69
2024/04/18 12:35:47;;;;;;;;;;;;;;;8.99;100.00;98415.77;1778372;80;20398;-70
2024/04/18 12:38:13;;;;;;;;;;;;;;;8.97;100.00;98409.03;1773509;81;20426;-71
2024/04/18 12:40:43;;;;;;;;;;;;;;;8.97;100.00;98414.23;1756624;80;20103;-71
2024/04/18 12:43:11;;;;;;;;;;;;;;;8.98;100.00;98410.69;1754590;81;20147;-72
2024/04/18 12:45:55;;;;;;;;;;;;;;;8.97;100.00;98397.35;1753451;80;20179;-71
2024/04/18 12:48:23;;;;;;;;;;;;;;;8.97;100.00;98392.98;1748195;80;20122;-69
2024/04/18 12:50:53;;;;;;;;;;;;;;;8.98;100.00;98386.85;1736980;81;20475;-72
2024/04/18 12:53:22;;;;;;;;;;;;;;;8.98;100.00;98382.95;1752006;80;20175;-72
2024/04/18 12:55:51;;;;;;;;;;;;;;;8.97;100.00;98385.67;1749718;80;20146;-69
2024/04/18 12:58:17;;;;;;;;;;;;;;;8.96;100.00;98402.19;1754831;81;20107;-68
2024/04/18 13:00:45;;;;;;;;;;;;;;;8.96;100.00;98409.50;1742986;81;20109;-71
2024/04/18 13:03:14;;;;;;;;;;;;;;;8.96;100.00;98409.98;1735918;81;20495;-69
2024/04/18 13:05:41;;;;;;;;;;;;;;;8.94;100.00;98408.80;1757576;80;20134;-69
2024/04/18 13:08:07;;;;;;;;;;;;;;;8.93;100.00;98405.84;1761886;80;20166;-69
2024/04/18 13:10:52;;;;;;;;;;;;;;;8.94;100.00;98404.07;1759425;81;20202;-70
2024/04/18 13:13:24;;;;;;;;;;;;;;;8.92;100.00;98417.64;1759478;81;20134;-70
2024/04/18 13:16:08;;;;;;;;;;;;;;;8.89;100.00;98410.91;1757506;81;20448;-70
2024/04/18 13:18:35;;;;;;;;;;;;;;;8.88;100.00;98399.34;1759198;81;20128;-67
2024/04/18 13:21:02;;;;;;;;;;;;;;;8.89;100.00;98390.61;1757665;81;20151;-70
2024/04/18 13:23:30;;;;;;;;;;;;;;;8.90;100.00;98392.27;1759616;81;20153;-69
2024/04/18 13:25:59;;;;;;;;;;;;;;;8.89;100.00;98400.52;1756100;81;20141;-67
2024/04/18 13:28:25;;;;;;;;;;;;;;;8.89;100.00;98391.44;1755369;81;20104;-69
2024/04/18 13:31:13;;;;;;;;;;;;;;;8.89;100.00;98388.02;1760196;81;20108;-67
2024/04/18 13:33:50;;;;;;;;;;;;;;;8.88;100.00;98384.59;1756668;81;20136;-66
2024/04/18 13:36:15;;;;;;;;;;;;;;;8.88;100.00;98387.19;1764637;81;20117;-66
2024/04/18 13:38:43;;;;;;;;;;;;;;;8.89;100.00;98387.54;1756473;81;20114;-67
2024/04/18 13:41:09;;;;;;;;;;;;;;;8.90;100.00;98372.33;1763148;81;20492;-69
2024/04/18 13:43:38;;;;;;;;;;;;;;;8.88;100.00;98360.41;1755196;81;20410;-69
2024/04/18 13:46:05;;;;;;;;;;;;;;;8.88;100.00;98352.14;1756959;81;20091;-70
2024/04/18 13:48:33;;;;;;;;;;;;;;;8.88;100.00;98343.53;1758338;81;20138;-69
2024/04/18 13:51:00;;;;;;;;;;;;;;;8.86;100.00;98333.73;1755165;81;20099;-67
2024/04/18 13:53:27;;;;;;;;;;;;;;;8.86;100.00;98331.97;1757386;81;20198;-69
2024/04/18 13:55:53;;;;;;;;;;;;;;;8.85;100.00;98335.98;1759610;81;20110;-70
2024/04/18 13:58:21;;;;;;;;;;;;;;;8.84;100.00;98333.85;1755744;81;20210;-78
2024/04/18 14:01:00;;;;;;;;;;;;;;;8.84;100.00;98331.73;1765530;81;20367;-73
2024/04/18 14:03:26;;;;;;;;;;;;;;;8.85;100.00;98336.80;1762544;80;20175;-70
2024/04/18 14:06:07;;;;;;;;;;;;;;;8.87;100.00;98345.30;1765786;80;20199;-73
2024/04/18 14:08:44;;;;;;;;;;;;;;;8.87;100.00;98342.70;1764012;80;20148;-73
2024/04/18 14:11:28;;;;;;;;;;;;;;;8.86;100.00;98335.03;1758987;80;20163;-68
2024/04/18 14:14:06;;;;;;;;;;;;;;;8.85;100.00;98328.19;1739091;81;20138;-72
